Time;durP1;ratioP1;P1;durP2;ratioP2;P2;SDS_P1;SDS_P2;PMS_P1;PMS_P2;Temp;Humidity;BMP_temperature;BMP_pressure;BME280_temperature;BME280_humidity;BME280_pressure;Samples;Min_cycle;Max_cycle;Signal;HPM_P1;HPM_P2
2023/07/08 00:01:27;;;;;;;7.43;5.93;;;;;;;;;;5083567;28;20224;-69
2023/07/08 00:03:55;;;;;;;7.57;6.07;;;;;;;;;;5078335;28;20210;-69
2023/07/08 00:06:23;;;;;;;7.72;6.13;;;;;;;;;;5079388;28;20201;-69
2023/07/08 00:08:51;;;;;;;6.82;5.85;;;;;;;;;;5080555;28;20225;-69
2023/07/08 00:11:19;;;;;;;6.97;6.07;;;;;;;;;;5074628;28;20207;-69
2023/07/08 00:13:46;;;;;;;6.63;6.03;;;;;;;;;;5080072;28;20202;-69
2023/07/08 00:16:14;;;;;;;7.00;6.30;;;;;;;;;;5069778;28;20219;-69
2023/07/08 00:18:42;;;;;;;6.50;5.90;;;;;;;;;;5070852;28;20230;-69
2023/07/08 00:21:16;;;;;;;6.63;6.00;;;;;;;;;;5080670;28;20198;-69
2023/07/08 00:23:45;;;;;;;7.07;6.38;;;;;;;;;;5076166;28;20257;-69
2023/07/08 00:26:16;;;;;;;7.43;6.63;;;;;;;;;;5069463;28;20202;-69
2023/07/08 00:28:43;;;;;;;7.95;5.90;;;;;;;;;;5075504;28;20198;-69
2023/07/08 00:31:11;;;;;;;8.27;6.65;;;;;;;;;;5074995;28;20194;-69
2023/07/08 00:33:38;;;;;;;7.30;6.60;;;;;;;;;;5077672;28;20206;-69
2023/07/08 00:36:10;;;;;;;7.50;6.40;;;;;;;;;;5076731;28;20217;-69
2023/07/08 00:38:37;;;;;;;7.03;6.32;;;;;;;;;;5077388;28;20205;-69
2023/07/08 00:41:10;;;;;;;8.18;6.60;;;;;;;;;;5074355;28;20203;-69
2023/07/08 00:43:39;;;;;;;7.25;6.55;;;;;;;;;;5080080;28;20202;-69
2023/07/08 00:46:14;;;;;;;7.03;6.32;;;;;;;;;;5078810;28;20190;-69
2023/07/08 00:48:41;;;;;;;7.82;6.50;;;;;;;;;;5080535;28;20202;-69
2023/07/08 00:51:10;;;;;;;7.30;6.40;;;;;;;;;;5072786;28;20293;-69
2023/07/08 00:53:38;;;;;;;7.55;6.70;;;;;;;;;;5074863;28;20205;-69
2023/07/08 00:56:08;;;;;;;7.13;6.10;;;;;;;;;;5075162;28;20248;-69
2023/07/08 00:58:36;;;;;;;7.45;6.70;;;;;;;;;;5077292;28;20212;-69
2023/07/08 01:01:06;;;;;;;6.95;6.25;;;;;;;;;;5076616;28;20202;-69
2023/07/08 01:03:35;;;;;;;8.90;6.75;;;;;;;;;;5074954;28;20289;-69
2023/07/08 01:06:02;;;;;;;7.75;6.90;;;;;;;;;;5074196;28;20292;-69
2023/07/08 01:08:30;;;;;;;7.07;6.38;;;;;;;;;;5074147;28;20234;-69
2023/07/08 01:11:01;;;;;;;7.28;6.50;;;;;;;;;;5077054;28;20259;-69
2023/07/08 01:13:29;;;;;;;6.78;6.07;;;;;;;;;;5072399;28;20213;-70
2023/07/08 01:15:56;;;;;;;7.95;6.20;;;;;;;;;;5074915;28;20224;-69
2023/07/08 01:18:25;;;;;;;8.10;6.63;;;;;;;;;;5073368;28;20206;-70
2023/07/08 01:20:55;;;;;;;7.40;6.18;;;;;;;;;;5076799;28;20213;-70
2023/07/08 01:23:24;;;;;;;7.53;6.25;;;;;;;;;;5071406;28;20206;-70
2023/07/08 01:25:51;;;;;;;7.70;6.60;;;;;;;;;;5072751;28;20199;-70
2023/07/08 01:28:19;;;;;;;8.57;6.68;;;;;;;;;;5079489;28;20213;-70
2023/07/08 01:30:47;;;;;;;10.13;6.88;;;;;;;;;;5065241;28;20207;-70
2023/07/08 01:33:17;;;;;;;7.88;7.18;;;;;;;;;;5076042;28;20294;-70
2023/07/08 01:35:44;;;;;;;7.28;6.53;;;;;;;;;;5069607;28;20213;-70
2023/07/08 01:38:12;;;;;;;9.32;6.65;;;;;;;;;;5073951;28;20222;-70
2023/07/08 01:40:49;;;;;;;7.55;6.85;;;;;;;;;;5073922;28;20208;-70
2023/07/08 01:43:16;;;;;;;7.45;6.75;;;;;;;;;;5068749;28;20202;-70
2023/07/08 01:45:44;;;;;;;8.63;7.15;;;;;;;;;;5070171;28;20205;-70
2023/07/08 01:48:12;;;;;;;7.65;6.60;;;;;;;;;;5069136;28;20221;-70
2023/07/08 01:50:42;;;;;;;7.90;6.97;;;;;;;;;;5068673;28;20203;-70
2023/07/08 01:53:11;;;;;;;6.65;6.05;;;;;;;;;;5074721;28;20212;-70
2023/07/08 01:55:38;;;;;;;7.55;6.80;;;;;;;;;;5074400;28;20201;-70
2023/07/08 01:58:07;;;;;;;6.90;6.20;;;;;;;;;;5078642;28;20219;-70
2023/07/08 02:00:34;;;;;;;8.85;6.30;;;;;;;;;;5072041;28;20217;-70
2023/07/08 02:03:01;;;;;;;7.50;6.80;;;;;;;;;;5073494;28;20209;-70
2023/07/08 02:05:29;;;;;;;7.10;6.32;;;;;;;;;;5074665;28;20199;-70
2023/07/08 02:07:56;;;;;;;7.00;6.30;;;;;;;;;;5076846;28;20332;-70
2023/07/08 02:10:25;;;;;;;6.65;6.05;;;;;;;;;;5074652;28;20202;-70
2023/07/08 02:12:52;;;;;;;6.90;6.20;;;;;;;;;;5071779;28;20203;-70
2023/07/08 02:15:20;;;;;;;6.72;6.10;;;;;;;;;;5076930;28;20270;-70
2023/07/08 02:17:48;;;;;;;7.72;6.93;;;;;;;;;;5072551;28;20233;-70
2023/07/08 02:20:16;;;;;;;6.70;6.00;;;;;;;;;;5068905;28;20211;-70
2023/07/08 02:22:43;;;;;;;6.57;5.90;;;;;;;;;;5077659;28;20202;-70
2023/07/08 02:25:11;;;;;;;8.43;6.60;;;;;;;;;;5072580;28;20226;-70
2023/07/08 02:27:38;;;;;;;7.45;6.60;;;;;;;;;;5074987;28;20281;-70
2023/07/08 02:30:06;;;;;;;8.50;6.70;;;;;;;;;;5079670;28;20220;-70
2023/07/08 02:32:35;;;;;;;7.18;6.47;;;;;;;;;;5073376;28;20245;-70
2023/07/08 02:35:03;;;;;;;6.65;6.05;;;;;;;;;;5074244;28;20199;-71
2023/07/08 02:37:30;;;;;;;8.80;6.47;;;;;;;;;;5074622;28;20219;-70
2023/07/08 02:39:57;;;;;;;7.70;6.57;;;;;;;;;;5068359;28;20211;-70
2023/07/08 02:42:25;;;;;;;7.07;6.35;;;;;;;;;;5074030;28;20202;-70
2023/07/08 02:44:52;;;;;;;8.57;6.78;;;;;;;;;;5074935;28;20277;-70
2023/07/08 02:47:19;;;;;;;7.90;6.53;;;;;;;;;;5077032;28;20217;-70
2023/07/08 02:49:48;;;;;;;6.32;5.72;;;;;;;;;;5078021;28;20216;-70
2023/07/08 02:52:15;;;;;;;7.03;6.38;;;;;;;;;;5078680;28;20202;-70
2023/07/08 02:54:42;;;;;;;7.15;6.18;;;;;;;;;;5076426;28;20205;-70
2023/07/08 02:57:09;;;;;;;8.38;6.68;;;;;;;;;;5076251;28;20221;-70
2023/07/08 02:59:36;;;;;;;8.68;6.47;;;;;;;;;;5071167;28;20255;-70
2023/07/08 03:02:04;;;;;;;6.95;6.32;;;;;;;;;;5075552;28;20309;-70
2023/07/08 03:04:31;;;;;;;7.63;6.60;;;;;;;;;;5072004;28;20207;-69
2023/07/08 03:07:00;;;;;;;7.13;6.35;;;;;;;;;;5076521;28;20237;-70
2023/07/08 03:09:28;;;;;;;6.80;5.80;;;;;;;;;;5072046;28;20267;-70
2023/07/08 03:11:55;;;;;;;6.80;6.13;;;;;;;;;;5076900;28;20207;-70
2023/07/08 03:14:23;;;;;;;8.60;6.70;;;;;;;;;;5077523;28;20253;-70
2023/07/08 03:16:50;;;;;;;7.30;6.43;;;;;;;;;;5077363;28;20223;-70
2023/07/08 03:19:17;;;;;;;6.88;6.18;;;;;;;;;;5075364;28;20225;-70
2023/07/08 03:21:45;;;;;;;6.90;6.20;;;;;;;;;;5073125;28;20205;-70
2023/07/08 03:24:13;;;;;;;7.30;6.60;;;;;;;;;;5076265;28;20207;-70
2023/07/08 03:26:41;;;;;;;6.97;6.28;;;;;;;;;;5075434;28;20224;-70
2023/07/08 03:29:13;;;;;;;6.95;6.32;;;;;;;;;;5077923;28;20203;-70
2023/07/08 03:31:40;;;;;;;6.90;6.20;;;;;;;;;;5077749;28;20205;-70
2023/07/08 03:34:09;;;;;;;7.53;6.82;;;;;;;;;;5076177;28;20199;-70
2023/07/08 03:36:36;;;;;;;7.10;6.30;;;;;;;;;;5078342;28;20233;-70
2023/07/08 03:39:03;;;;;;;6.80;6.10;;;;;;;;;;5070582;28;20207;-70
2023/07/08 03:41:31;;;;;;;7.60;6.10;;;;;;;;;;5080175;28;20199;-70
2023/07/08 03:43:59;;;;;;;7.97;6.63;;;;;;;;;;5074979;28;20229;-70
2023/07/08 03:46:26;;;;;;;7.40;6.15;;;;;;;;;;5077479;28;20293;-70
2023/07/08 03:48:53;;;;;;;8.07;6.93;;;;;;;;;;5076283;28;20266;-70
2023/07/08 03:51:22;;;;;;;9.18;6.80;;;;;;;;;;5076817;28;20338;-70
2023/07/08 03:53:51;;;;;;;7.40;6.32;;;;;;;;;;5078017;28;20213;-71
2023/07/08 03:56:18;;;;;;;7.20;6.50;;;;;;;;;;5074024;28;20210;-70
2023/07/08 03:58:46;;;;;;;7.03;6.32;;;;;;;;;;5076520;28;20223;-71
2023/07/08 04:01:16;;;;;;;7.88;6.50;;;;;;;;;;5077596;28;20289;-71
2023/07/08 04:03:44;;;;;;;7.47;6.78;;;;;;;;;;5069974;28;20214;-70
2023/07/08 04:06:11;;;;;;;7.40;6.70;;;;;;;;;;5074040;28;20252;-71
2023/07/08 04:08:38;;;;;;;6.80;6.10;;;;;;;;;;5077370;28;20237;-71
2023/07/08 04:11:05;;;;;;;8.18;6.90;;;;;;;;;;5070577;28;20253;-71
2023/07/08 04:13:33;;;;;;;7.38;6.68;;;;;;;;;;5079846;28;20237;-71
2023/07/08 04:16:03;;;;;;;7.55;6.85;;;;;;;;;;5072457;28;20202;-71
2023/07/08 04:18:30;;;;;;;7.63;6.93;;;;;;;;;;5077570;28;20218;-71
2023/07/08 04:20:58;;;;;;;8.45;6.47;;;;;;;;;;5080352;28;20206;-71
2023/07/08 04:23:26;;;;;;;7.18;6.47;;;;;;;;;;5074711;28;20298;-71
2023/07/08 04:25:55;;;;;;;7.63;6.25;;;;;;;;;;5080295;28;20208;-71
2023/07/08 04:28:23;;;;;;;8.27;6.80;;;;;;;;;;5078269;28;20198;-71
2023/07/08 04:30:50;;;;;;;7.25;6.40;;;;;;;;;;5077173;28;20198;-72
2023/07/08 04:33:19;;;;;;;7.95;6.85;;;;;;;;;;5076954;28;20274;-72
2023/07/08 04:35:46;;;;;;;7.63;6.35;;;;;;;;;;5072090;28;20202;-72
2023/07/08 04:38:17;;;;;;;7.45;6.80;;;;;;;;;;5078643;28;20223;-72
2023/07/08 04:40:45;;;;;;;7.20;6.43;;;;;;;;;;5070489;28;20211;-72
2023/07/08 04:43:12;;;;;;;7.18;6.22;;;;;;;;;;5072115;28;20199;-72
2023/07/08 04:45:40;;;;;;;7.63;6.50;;;;;;;;;;5071978;28;20201;-72
2023/07/08 04:48:12;;;;;;;8.93;6.53;;;;;;;;;;5076954;28;20194;-72
2023/07/08 04:50:42;;;;;;;7.25;6.40;;;;;;;;;;5077427;28;20203;-72
2023/07/08 04:53:09;;;;;;;7.10;6.40;;;;;;;;;;5076427;28;20202;-73
2023/07/08 04:55:36;;;;;;;6.55;5.95;;;;;;;;;;5077497;28;20198;-73
2023/07/08 04:58:04;;;;;;;8.35;6.32;;;;;;;;;;5075222;28;20229;-72
2023/07/08 05:00:31;;;;;;;7.93;6.22;;;;;;;;;;5076853;28;20194;-73
2023/07/08 05:02:58;;;;;;;8.68;6.32;;;;;;;;;;5077737;28;20198;-73
2023/07/08 05:05:25;;;;;;;6.68;6.05;;;;;;;;;;5070656;28;20208;-73
2023/07/08 05:07:54;;;;;;;7.35;6.15;;;;;;;;;;5067964;28;20234;-73
2023/07/08 05:10:22;;;;;;;8.23;6.57;;;;;;;;;;5075033;28;20204;-73
2023/07/08 05:12:49;;;;;;;7.35;6.65;;;;;;;;;;5068475;28;20199;-73
2023/07/08 05:15:17;;;;;;;8.20;6.70;;;;;;;;;;5073033;28;20205;-73
2023/07/08 05:17:44;;;;;;;6.55;5.95;;;;;;;;;;5078947;28;20404;-73
2023/07/08 05:20:14;;;;;;;9.65;6.68;;;;;;;;;;5075848;28;20323;-73
2023/07/08 05:22:42;;;;;;;7.45;6.75;;;;;;;;;;5075379;28;20288;-73
2023/07/08 05:25:11;;;;;;;7.88;6.65;;;;;;;;;;5073727;28;20197;-72
2023/07/08 05:27:38;;;;;;;7.88;6.55;;;;;;;;;;5070391;28;20302;-72
2023/07/08 05:30:07;;;;;;;7.40;6.20;;;;;;;;;;5075621;28;20301;-72
2023/07/08 05:32:34;;;;;;;7.57;6.75;;;;;;;;;;5075363;28;20206;-72
2023/07/08 05:35:01;;;;;;;7.22;6.53;;;;;;;;;;5070482;28;20210;-72
2023/07/08 05:37:29;;;;;;;7.00;6.22;;;;;;;;;;5073689;28;20313;-72
2023/07/08 05:39:56;;;;;;;6.80;6.05;;;;;;;;;;5073046;28;20225;-73
2023/07/08 05:42:25;;;;;;;7.63;6.60;;;;;;;;;;5070833;28;20201;-72
2023/07/08 05:44:52;;;;;;;7.22;6.50;;;;;;;;;;5068431;28;20214;-72
2023/07/08 05:47:19;;;;;;;7.00;6.30;;;;;;;;;;5075131;28;20202;-72
2023/07/08 05:49:46;;;;;;;9.35;7.00;;;;;;;;;;5073493;28;20203;-73
2023/07/08 05:52:14;;;;;;;6.95;6.25;;;;;;;;;;5069316;28;20198;-73
2023/07/08 05:54:41;;;;;;;7.45;6.75;;;;;;;;;;5071463;28;20298;-73
2023/07/08 05:57:09;;;;;;;7.10;6.38;;;;;;;;;;5073736;28;20199;-73
2023/07/08 05:59:39;;;;;;;7.40;6.18;;;;;;;;;;5075019;28;20198;-73
2023/07/08 06:02:07;;;;;;;8.73;6.45;;;;;;;;;;5073570;28;20206;-73
2023/07/08 06:04:34;;;;;;;7.75;6.95;;;;;;;;;;5070892;28;20206;-74
2023/07/08 06:07:01;;;;;;;6.68;5.85;;;;;;;;;;5064953;28;20214;-73
2023/07/08 06:09:29;;;;;;;8.23;6.30;;;;;;;;;;5062088;28;20198;-74
2023/07/08 06:11:56;;;;;;;7.78;6.22;;;;;;;;;;5075055;28;20201;-74
2023/07/08 06:14:23;;;;;;;8.73;6.53;;;;;;;;;;5067903;28;20214;-74
2023/07/08 06:16:52;;;;;;;9.18;6.28;;;;;;;;;;5076255;28;20202;-75
2023/07/08 06:19:19;;;;;;;7.07;6.38;;;;;;;;;;5077691;28;20226;-75
2023/07/08 06:21:46;;;;;;;8.30;6.20;;;;;;;;;;5073370;28;20285;-75
2023/07/08 06:24:13;;;;;;;6.78;6.13;;;;;;;;;;5076661;28;20226;-75
2023/07/08 06:26:41;;;;;;;6.57;5.97;;;;;;;;;;5071878;28;20234;-75
2023/07/08 06:29:08;;;;;;;6.90;6.22;;;;;;;;;;5075123;28;20200;-75
2023/07/08 06:31:35;;;;;;;6.75;6.05;;;;;;;;;;5076078;28;20233;-75
2023/07/08 06:34:04;;;;;;;7.03;6.32;;;;;;;;;;5066372;28;20199;-75
2023/07/08 06:36:31;;;;;;;7.07;5.90;;;;;;;;;;5076679;28;20199;-74
2023/07/08 06:38:58;;;;;;;7.15;6.32;;;;;;;;;;5063337;28;20249;-74
2023/07/08 06:41:26;;;;;;;7.07;6.28;;;;;;;;;;5065921;28;20203;-75
2023/07/08 06:43:53;;;;;;;8.13;6.35;;;;;;;;;;5069813;28;20199;-75
2023/07/08 06:46:21;;;;;;;7.40;6.25;;;;;;;;;;5071977;28;20199;-74
2023/07/08 06:48:48;;;;;;;7.28;6.45;;;;;;;;;;5066529;28;20206;-74
2023/07/08 06:51:17;;;;;;;8.55;6.35;;;;;;;;;;5065531;28;20214;-75
2023/07/08 06:53:44;;;;;;;6.78;6.00;;;;;;;;;;5069539;28;20210;-76
2023/07/08 06:56:11;;;;;;;9.55;6.40;;;;;;;;;;5067090;28;20212;-76
2023/07/08 06:58:38;;;;;;;8.07;6.22;;;;;;;;;;5066098;28;20226;-76
2023/07/08 07:01:06;;;;;;;6.85;5.63;;;;;;;;;;5066002;28;20275;-76
2023/07/08 07:03:33;;;;;;;6.93;6.13;;;;;;;;;;5065361;28;20199;-74
2023/07/08 07:06:00;;;;;;;6.47;5.80;;;;;;;;;;5067211;28;20217;-75
2023/07/08 07:08:29;;;;;;;7.35;6.25;;;;;;;;;;5063644;28;20316;-75
2023/07/08 07:10:56;;;;;;;7.60;6.35;;;;;;;;;;5063397;28;20206;-75
2023/07/08 07:13:23;;;;;;;7.25;6.55;;;;;;;;;;5064412;28;20206;-77
2023/07/08 07:15:51;;;;;;;7.28;6.57;;;;;;;;;;5064378;28;20203;-77
2023/07/08 07:18:18;;;;;;;13.25;6.75;;;;;;;;;;5062622;28;20225;-76
2023/07/08 07:20:50;;;;;;;6.68;6.03;;;;;;;;;;5073907;28;20259;-76
2023/07/08 07:23:18;;;;;;;7.55;6.65;;;;;;;;;;5062449;28;20237;-77
2023/07/08 07:25:48;;;;;;;9.00;6.95;;;;;;;;;;5064565;28;20237;-76
2023/07/08 07:28:16;;;;;;;6.70;6.00;;;;;;;;;;5059484;28;20210;-77
2023/07/08 07:30:43;;;;;;;8.35;6.50;;;;;;;;;;5068512;28;20225;-76
2023/07/08 07:33:11;;;;;;;8.40;6.65;;;;;;;;;;5068675;28;20210;-77
2023/07/08 07:35:43;;;;;;;7.70;6.07;;;;;;;;;;5067126;28;20209;-71
2023/07/08 07:38:10;;;;;;;7.47;6.43;;;;;;;;;;5063656;28;20340;-71
2023/07/08 07:40:37;;;;;;;8.77;6.70;;;;;;;;;;5068252;28;20206;-71
2023/07/08 07:43:06;;;;;;;8.95;6.30;;;;;;;;;;5068327;28;20207;-74
2023/07/08 07:45:33;;;;;;;10.13;6.50;;;;;;;;;;5057724;28;20215;-73
2023/07/08 07:48:00;;;;;;;7.32;6.47;;;;;;;;;;5064878;28;20207;-76
2023/07/08 07:50:27;;;;;;;7.50;6.45;;;;;;;;;;5072587;28;20267;-73
2023/07/08 07:52:55;;;;;;;7.40;6.35;;;;;;;;;;5059704;28;20202;-74
2023/07/08 07:55:22;;;;;;;9.65;6.32;;;;;;;;;;5064372;28;20210;-77
2023/07/08 07:57:49;;;;;;;7.03;6.32;;;;;;;;;;5070160;28;20284;-76
2023/07/08 08:00:18;;;;;;;6.13;5.63;;;;;;;;;;5072653;28;20217;-76
2023/07/08 08:02:45;;;;;;;6.75;6.10;;;;;;;;;;5070916;28;20206;-76
2023/07/08 08:05:12;;;;;;;6.55;5.95;;;;;;;;;;5067009;28;20229;-75
2023/07/08 08:07:40;;;;;;;6.68;6.05;;;;;;;;;;5069321;28;20238;-76
2023/07/08 08:10:08;;;;;;;8.10;6.60;;;;;;;;;;5066439;28;20212;-78
2023/07/08 08:12:35;;;;;;;6.82;6.20;;;;;;;;;;5071418;28;20259;-77
2023/07/08 08:15:03;;;;;;;6.72;6.13;;;;;;;;;;5078819;28;20213;-76
2023/07/08 08:17:31;;;;;;;6.03;5.43;;;;;;;;;;5075645;28;20256;-76
2023/07/08 08:19:58;;;;;;;11.02;6.25;;;;;;;;;;5068931;28;20218;-78
2023/07/08 08:22:26;;;;;;;7.57;6.45;;;;;;;;;;5066673;28;20225;-77
2023/07/08 08:24:53;;;;;;;6.72;5.97;;;;;;;;;;5068212;28;20206;-77
2023/07/08 08:27:20;;;;;;;7.53;5.82;;;;;;;;;;5067960;28;20217;-79
2023/07/08 08:29:48;;;;;;;6.60;6.00;;;;;;;;;;5072391;28;20207;-79
2023/07/08 08:32:18;;;;;;;6.30;5.70;;;;;;;;;;5071711;28;20201;-73
2023/07/08 08:34:47;;;;;;;7.10;6.40;;;;;;;;;;5067543;28;20207;-78
2023/07/08 08:37:14;;;;;;;8.85;5.93;;;;;;;;;;5064880;28;20198;-79
2023/07/08 08:39:41;;;;;;;11.65;6.32;;;;;;;;;;5067248;28;20246;-79
2023/07/08 08:42:16;;;;;;;9.07;6.05;;;;;;;;;;5072316;28;20213;-80
2023/07/08 08:44:45;;;;;;;8.95;6.18;;;;;;;;;;5081787;28;20292;-79
2023/07/08 08:47:19;;;;;;;6.10;5.50;;;;;;;;;;5067064;28;20289;-78
2023/07/08 08:49:52;;;;;;;8.02;5.63;;;;;;;;;;5072190;28;20207;-77
2023/07/08 08:52:19;;;;;;;7.18;6.05;;;;;;;;;;5070440;28;20205;-76
2023/07/08 08:54:47;;;;;;;6.47;5.88;;;;;;;;;;5069894;28;20202;-76
2023/07/08 08:57:17;;;;;;;7.78;5.82;;;;;;;;;;5078773;28;20271;-76
2023/07/08 08:59:46;;;;;;;12.38;5.78;;;;;;;;;;5080230;28;20315;-76
2023/07/08 09:02:22;;;;;;;6.93;5.68;;;;;;;;;;5077012;28;20297;-77
2023/07/08 09:04:51;;;;;;;6.55;5.40;;;;;;;;;;5075971;28;20209;-77
2023/07/08 09:07:20;;;;;;;6.85;5.50;;;;;;;;;;5083480;28;20329;-77
2023/07/08 09:09:49;;;;;;;6.65;5.88;;;;;;;;;;5080974;28;20240;-75
2023/07/08 09:12:19;;;;;;;12.13;6.68;;;;;;;;;;5086255;28;20203;-76
2023/07/08 09:14:46;;;;;;;8.13;5.68;;;;;;;;;;5085167;28;20210;-76
2023/07/08 09:17:19;;;;;;;8.02;5.20;;;;;;;;;;5072930;28;20199;-76
2023/07/08 09:19:48;;;;;;;6.85;5.85;;;;;;;;;;5071016;28;20218;-75
2023/07/08 09:22:19;;;;;;;5.97;5.28;;;;;;;;;;5082217;28;20198;-76
2023/07/08 09:24:49;;;;;;;8.93;5.40;;;;;;;;;;5074253;28;20202;-75
2023/07/08 09:27:17;;;;;;;9.38;5.93;;;;;;;;;;5075576;28;20321;-74
2023/07/08 09:29:44;;;;;;;9.38;5.88;;;;;;;;;;5074365;28;20225;-74
2023/07/08 09:32:16;;;;;;;8.82;5.65;;;;;;;;;;5083060;28;20225;-75
2023/07/08 09:34:46;;;;;;;8.98;5.35;;;;;;;;;;5069573;28;20206;-75
2023/07/08 09:37:26;;;;;;;7.57;5.40;;;;;;;;;;5073566;28;20209;-74
2023/07/08 09:39:53;;;;;;;7.35;5.45;;;;;;;;;;5077838;28;20220;-75
2023/07/08 09:42:22;;;;;;;6.03;5.22;;;;;;;;;;5081065;28;20222;-73
2023/07/08 09:44:49;;;;;;;10.95;6.18;;;;;;;;;;5077204;28;20206;-73
2023/07/08 09:47:25;;;;;;;8.60;5.53;;;;;;;;;;5078073;28;20282;-75
2023/07/08 09:49:54;;;;;;;10.82;5.93;;;;;;;;;;5080770;28;20216;-74
2023/07/08 09:52:21;;;;;;;7.55;5.40;;;;;;;;;;5080051;28;20234;-75
2023/07/08 09:54:51;;;;;;;10.13;5.30;;;;;;;;;;5081703;28;20226;-75
2023/07/08 09:57:23;;;;;;;6.65;5.88;;;;;;;;;;5086534;28;20300;-74
2023/07/08 09:59:51;;;;;;;7.00;5.38;;;;;;;;;;5083207;28;20229;-74
2023/07/08 10:02:29;;;;;;;6.55;5.45;;;;;;;;;;5085802;28;20206;-75
2023/07/08 10:04:57;;;;;;;7.32;5.70;;;;;;;;;;5086469;28;20302;-74
2023/07/08 10:07:25;;;;;;;9.52;5.75;;;;;;;;;;5088147;28;20321;-72
2023/07/08 10:09:55;;;;;;;9.07;5.30;;;;;;;;;;5085857;28;20262;-73
2023/07/08 10:12:24;;;;;;;8.82;5.57;;;;;;;;;;5087988;28;20198;-73
2023/07/08 10:14:52;;;;;;;13.23;6.90;;;;;;;;;;5078006;28;20201;-74
2023/07/08 10:17:21;;;;;;;8.45;5.90;;;;;;;;;;5083394;28;20207;-74
2023/07/08 10:19:48;;;;;;;5.53;4.65;;;;;;;;;;5084222;28;20222;-73
2023/07/08 10:22:21;;;;;;;8.35;4.93;;;;;;;;;;5082488;28;20209;-73
2023/07/08 10:24:55;;;;;;;5.57;5.03;;;;;;;;;;5081038;28;20209;-72
2023/07/08 10:27:29;;;;;;;7.00;5.43;;;;;;;;;;5076108;28;20202;-75
2023/07/08 10:30:00;;;;;;;6.63;4.75;;;;;;;;;;5083843;28;20202;-73
2023/07/08 10:32:36;;;;;;;8.90;5.63;;;;;;;;;;5081529;28;20298;-74
2023/07/08 10:35:06;;;;;;;8.68;5.38;;;;;;;;;;5080902;28;20205;-75
2023/07/08 10:37:39;;;;;;;9.60;4.95;;;;;;;;;;5085309;28;20198;-76
2023/07/08 10:40:15;;;;;;;7.40;4.32;;;;;;;;;;5082718;28;20236;-73
2023/07/08 10:42:52;;;;;;;6.60;5.05;;;;;;;;;;5082715;28;20241;-73
2023/07/08 10:45:23;;;;;;;6.60;5.15;;;;;;;;;;5076653;28;20210;-75
2023/07/08 10:47:59;;;;;;;6.82;5.03;;;;;;;;;;5084859;28;20228;-74
2023/07/08 10:50:31;;;;;;;6.93;4.90;;;;;;;;;;5085654;28;20194;-74
2023/07/08 10:53:01;;;;;;;6.85;4.72;;;;;;;;;;5087291;28;20217;-73
2023/07/08 10:55:34;;;;;;;6.90;4.85;;;;;;;;;;5077152;28;20217;-74
2023/07/08 10:58:15;;;;;;;7.43;4.72;;;;;;;;;;5077612;28;20210;-74
2023/07/08 11:00:47;;;;;;;6.43;5.05;;;;;;;;;;5088901;28;20235;-74
2023/07/08 11:03:35;;;;;;;10.18;5.35;;;;;;;;;;5084718;28;20210;-72
2023/07/08 11:06:04;;;;;;;6.82;4.65;;;;;;;;;;5074329;28;20210;-73
2023/07/08 11:08:34;;;;;;;5.85;4.53;;;;;;;;;;5073755;28;20235;-73
2023/07/08 11:11:02;;;;;;;5.63;5.07;;;;;;;;;;5075683;28;20199;-74
2023/07/08 11:13:33;;;;;;;7.75;4.13;;;;;;;;;;5083768;28;20210;-74
2023/07/08 11:16:06;;;;;;;5.00;4.47;;;;;;;;;;5079343;28;20202;-73
2023/07/08 11:18:37;;;;;;;5.57;4.45;;;;;;;;;;5089613;28;20202;-73
2023/07/08 11:21:07;;;;;;;7.80;4.30;;;;;;;;;;5072538;28;20226;-75
2023/07/08 11:23:41;;;;;;;5.05;3.88;;;;;;;;;;5081858;28;20293;-75
2023/07/08 11:26:17;;;;;;;4.88;4.22;;;;;;;;;;5077440;28;20208;-75
2023/07/08 11:28:46;;;;;;;4.78;4.10;;;;;;;;;;5081133;28;20202;-77
2023/07/08 11:31:14;;;;;;;7.93;4.28;;;;;;;;;;5074916;28;20195;-73
2023/07/08 11:33:43;;;;;;;4.68;3.90;;;;;;;;;;5076184;28;20203;-73
2023/07/08 11:36:10;;;;;;;7.00;3.80;;;;;;;;;;5073665;28;20270;-73
2023/07/08 11:38:39;;;;;;;7.60;4.13;;;;;;;;;;5076732;28;20214;-76
2023/07/08 11:41:13;;;;;;;6.38;3.97;;;;;;;;;;5074189;28;20343;-74
2023/07/08 11:43:46;;;;;;;7.35;3.90;;;;;;;;;;5072312;28;20195;-74
2023/07/08 11:46:16;;;;;;;4.05;3.65;;;;;;;;;;5080150;28;20199;-74
2023/07/08 11:48:45;;;;;;;4.20;3.80;;;;;;;;;;5076877;28;20209;-72
2023/07/08 11:51:18;;;;;;;15.35;4.90;;;;;;;;;;5077547;28;20191;-72
2023/07/08 11:53:49;;;;;;;9.02;4.15;;;;;;;;;;5077936;28;20308;-73
2023/07/08 11:56:26;;;;;;;6.05;4.18;;;;;;;;;;5073092;28;20301;-73
2023/07/08 11:59:05;;;;;;;6.95;4.15;;;;;;;;;;5079903;28;20225;-73
2023/07/08 12:01:39;;;;;;;6.80;3.97;;;;;;;;;;5075560;28;20205;-73
2023/07/08 12:04:18;;;;;;;6.55;3.70;;;;;;;;;;5077719;28;20218;-73
2023/07/08 12:06:49;;;;;;;5.00;3.80;;;;;;;;;;5072963;28;20203;-74
2023/07/08 12:09:17;;;;;;;9.40;4.10;;;;;;;;;;5072739;28;20235;-73
2023/07/08 12:11:45;;;;;;;6.05;4.43;;;;;;;;;;5072527;28;20230;-73
2023/07/08 12:14:14;;;;;;;4.40;4.00;;;;;;;;;;5080965;28;20202;-73
2023/07/08 12:16:43;;;;;;;7.07;3.80;;;;;;;;;;5079975;28;20198;-73
2023/07/08 12:19:12;;;;;;;4.78;3.58;;;;;;;;;;5075566;28;20255;-73
2023/07/08 12:21:40;;;;;;;7.93;4.45;;;;;;;;;;5076364;28;20234;-72
2023/07/08 12:24:08;;;;;;;5.93;4.10;;;;;;;;;;5077037;28;20202;-73
2023/07/08 12:26:35;;;;;;;9.02;3.83;;;;;;;;;;5075940;28;20232;-75
2023/07/08 12:29:02;;;;;;;4.80;4.18;;;;;;;;;;5074201;28;20289;-74
2023/07/08 12:31:31;;;;;;;4.88;3.83;;;;;;;;;;5084508;28;20208;-73
2023/07/08 12:33:59;;;;;;;9.77;4.07;;;;;;;;;;5074780;28;20207;-73
2023/07/08 12:36:29;;;;;;;7.10;4.13;;;;;;;;;;5070514;28;20199;-73
2023/07/08 12:38:56;;;;;;;5.63;3.92;;;;;;;;;;5075874;28;20198;-72
2023/07/08 12:41:25;;;;;;;6.75;3.75;;;;;;;;;;5083527;28;20228;-72
2023/07/08 12:43:53;;;;;;;4.03;3.63;;;;;;;;;;5079805;28;20211;-71
2023/07/08 12:46:21;;;;;;;6.75;3.90;;;;;;;;;;5084662;28;20224;-71
2023/07/08 12:48:49;;;;;;;5.45;4.05;;;;;;;;;;5080341;28;20207;-72
2023/07/08 12:51:20;;;;;;;5.15;3.78;;;;;;;;;;5078840;28;20202;-72
2023/07/08 12:53:47;;;;;;;9.27;3.60;;;;;;;;;;5080431;28;20202;-72
2023/07/08 12:56:15;;;;;;;7.82;4.13;;;;;;;;;;5077969;28;20202;-73
2023/07/08 12:58:43;;;;;;;5.78;3.90;;;;;;;;;;5082004;28;20207;-73
2023/07/08 13:01:16;;;;;;;4.40;3.70;;;;;;;;;;5083368;28;20232;-71
2023/07/08 13:03:45;;;;;;;12.68;4.18;;;;;;;;;;5080423;28;20214;-73
2023/07/08 13:06:14;;;;;;;6.80;3.70;;;;;;;;;;5080412;28;20259;-74
2023/07/08 13:08:42;;;;;;;19.00;4.85;;;;;;;;;;5069813;28;20222;-73
2023/07/08 13:11:09;;;;;;;5.57;4.03;;;;;;;;;;5072830;28;20201;-71
2023/07/08 13:13:38;;;;;;;7.07;3.92;;;;;;;;;;5074165;28;20202;-73
2023/07/08 13:16:06;;;;;;;6.15;4.07;;;;;;;;;;5075969;28;20202;-72
2023/07/08 13:18:33;;;;;;;5.00;3.60;;;;;;;;;;5081845;28;20289;-71
2023/07/08 13:21:01;;;;;;;7.70;3.63;;;;;;;;;;5087600;28;20229;-71
2023/07/08 13:23:29;;;;;;;10.00;3.90;;;;;;;;;;5073131;28;20297;-71
2023/07/08 13:25:58;;;;;;;6.40;3.67;;;;;;;;;;5075274;28;20193;-71
2023/07/08 13:28:25;;;;;;;4.72;3.45;;;;;;;;;;5072957;28;20221;-71
2023/07/08 13:30:53;;;;;;;6.80;4.00;;;;;;;;;;5071184;28;20206;-71
2023/07/08 13:33:21;;;;;;;6.35;3.80;;;;;;;;;;5071238;28;20228;-70
2023/07/08 13:35:49;;;;;;;6.07;3.83;;;;;;;;;;5083595;28;20206;-72
2023/07/08 13:38:17;;;;;;;7.10;4.05;;;;;;;;;;5077462;28;20301;-70
2023/07/08 13:40:45;;;;;;;7.93;4.00;;;;;;;;;;5075634;28;20228;-76
2023/07/08 13:43:14;;;;;;;4.90;3.92;;;;;;;;;;5083342;28;20210;-71
2023/07/08 13:45:47;;;;;;;6.07;3.78;;;;;;;;;;5070491;28;20212;-71
2023/07/08 13:48:15;;;;;;;6.63;4.03;;;;;;;;;;5074250;28;20252;-71
2023/07/08 13:50:46;;;;;;;5.15;3.30;;;;;;;;;;5072683;28;20293;-71
2023/07/08 13:53:22;;;;;;;25.40;6.90;;;;;;;;;;5075773;28;20213;-73
2023/07/08 13:55:50;;;;;;;7.53;4.07;;;;;;;;;;5078040;28;20258;-71
2023/07/08 13:58:19;;;;;;;5.68;3.70;;;;;;;;;;5078716;28;20206;-70
2023/07/08 14:00:46;;;;;;;17.77;4.47;;;;;;;;;;5080734;28;20232;-71
2023/07/08 14:03:15;;;;;;;4.50;3.72;;;;;;;;;;5077396;28;20216;-72
2023/07/08 14:05:42;;;;;;;8.52;3.65;;;;;;;;;;5085029;28;20201;-71
2023/07/08 14:08:13;;;;;;;10.95;4.20;;;;;;;;;;5085547;28;20238;-71
2023/07/08 14:10:41;;;;;;;5.03;3.78;;;;;;;;;;5081915;28;20265;-70
2023/07/08 14:13:08;;;;;;;5.38;3.83;;;;;;;;;;5083884;28;20206;-71
2023/07/08 14:15:36;;;;;;;17.90;5.00;;;;;;;;;;5077994;28;20205;-72
2023/07/08 14:18:04;;;;;;;13.77;4.30;;;;;;;;;;5080045;28;20297;-71
2023/07/08 14:20:32;;;;;;;6.05;3.80;;;;;;;;;;5081313;28;20236;-72
2023/07/08 14:22:59;;;;;;;5.70;3.45;;;;;;;;;;5077405;28;20209;-70
2023/07/08 14:25:26;;;;;;;4.82;3.65;;;;;;;;;;5080705;28;20297;-71
2023/07/08 14:27:53;;;;;;;4.68;3.25;;;;;;;;;;5078693;28;20202;-71
2023/07/08 14:30:21;;;;;;;6.20;3.50;;;;;;;;;;5076403;28;20202;-71
2023/07/08 14:32:50;;;;;;;4.30;3.60;;;;;;;;;;5079884;28;20209;-71
2023/07/08 14:35:19;;;;;;;5.45;3.60;;;;;;;;;;5075902;28;20203;-69
2023/07/08 14:37:46;;;;;;;4.55;3.63;;;;;;;;;;5078649;28;20193;-69
2023/07/08 14:40:21;;;;;;;4.03;3.60;;;;;;;;;;5071962;28;20276;-70
2023/07/08 14:42:48;;;;;;;4.78;3.88;;;;;;;;;;5068246;28;20201;-70
2023/07/08 14:45:15;;;;;;;5.45;4.20;;;;;;;;;;5073279;28;20212;-69
2023/07/08 14:47:42;;;;;;;5.07;3.60;;;;;;;;;;5071692;28;20198;-71
2023/07/08 14:50:16;;;;;;;6.22;3.75;;;;;;;;;;5076856;28;20194;-71
2023/07/08 14:52:43;;;;;;;4.13;3.63;;;;;;;;;;5073309;28;20213;-71